createdAt,value
2022-12-20T00:01:19.695Z,19.93
2022-12-20T00:04:00.284Z,22.23
2022-12-20T00:06:46.296Z,26.10
2022-12-20T00:09:20.208Z,17.27
2022-12-20T00:11:54.225Z,21.23
2022-12-20T00:14:27.735Z,23.47
2022-12-20T00:17:03.291Z,19.73
2022-12-20T00:19:37.250Z,20.13
2022-12-20T00:22:11.059Z,22.60
2022-12-20T00:24:42.617Z,27.60
2022-12-20T00:27:10.300Z,19.60
2022-12-20T00:29:54.138Z,20.97
2022-12-20T00:32:21.812Z,20.73
2022-12-20T00:34:55.602Z,26.20
2022-12-20T00:37:24.169Z,16.03
2022-12-20T00:39:57.682Z,26.43
2022-12-20T00:42:26.242Z,18.87
2022-12-20T00:44:53.793Z,19.53
2022-12-20T00:47:27.630Z,20.57
2022-12-20T00:49:55.273Z,28.47
2022-12-20T00:52:38.145Z,35.73
2022-12-20T00:55:07.089Z,16.60
2022-12-20T00:57:40.737Z,20.90
2022-12-20T01:00:10.765Z,15.43
2022-12-20T01:02:51.655Z,19.57
2022-12-20T01:05:31.347Z,24.17
2022-12-20T01:08:01.382Z,27.70
2022-12-20T01:10:30.867Z,37.27
2022-12-20T01:13:09.651Z,26.23
2022-12-20T01:15:39.289Z,34.70
2022-12-20T01:18:07.923Z,23.80
2022-12-20T01:20:38.475Z,20.13
2022-12-20T01:23:08.143Z,19.03
2022-12-20T01:25:42.586Z,28.87
2022-12-20T01:28:11.069Z,18.97
2022-12-20T01:30:42.238Z,22.90
2022-12-20T01:33:09.722Z,19.40
2022-12-20T01:35:39.387Z,27.10
2022-12-20T01:38:29.638Z,24.80
2022-12-20T01:41:04.461Z,24.30
2022-12-20T01:43:55.924Z,21.30
2022-12-20T01:46:26.216Z,32.20
2022-12-20T01:49:05.250Z,20.63
2022-12-20T01:51:33.385Z,27.43
2022-12-20T01:54:08.234Z,22.53
2022-12-20T01:56:35.961Z,37.50
2022-12-20T01:59:14.113Z,33.67
2022-12-20T02:01:43.776Z,38.63
2022-12-20T02:04:17.837Z,31.80
2022-12-20T02:06:50.455Z,18.87
2022-12-20T02:09:19.553Z,22.27
2022-12-20T02:12:26.680Z,31.93
2022-12-20T02:15:03.447Z,33.33
2022-12-20T02:18:11.456Z,30.30
2022-12-20T02:21:10.384Z,26.63
2022-12-20T02:24:12.955Z,18.73
2022-12-20T02:27:17.925Z,19.27
2022-12-20T02:30:05.002Z,19.23
2022-12-20T02:32:44.478Z,27.97
2022-12-20T02:35:30.247Z,28.17
2022-12-20T02:38:06.640Z,35.47
2022-12-20T02:40:42.364Z,26.13
2022-12-20T02:43:29.765Z,21.60
2022-12-20T02:46:16.871Z,24.70
2022-12-20T02:48:59.196Z,30.37
2022-12-20T02:51:34.593Z,31.70
2022-12-20T02:54:08.473Z,26.80
2022-12-20T02:56:39.313Z,29.17
2022-12-20T02:59:30.544Z,26.67
2022-12-20T03:02:13.188Z,29.70
2022-12-20T03:04:40.849Z,16.10
2022-12-20T03:07:13.337Z,26.70
2022-12-20T03:09:46.886Z,26.50
2022-12-20T03:12:20.317Z,27.97
2022-12-20T03:14:47.915Z,22.03
2022-12-20T03:17:16.181Z,20.57
2022-12-20T03:19:43.742Z,25.30
2022-12-20T03:22:12.470Z,36.80
2022-12-20T03:24:40.521Z,21.00
2022-12-20T03:27:12.004Z,25.90
2022-12-20T03:29:43.559Z,32.90
2022-12-20T03:32:12.417Z,19.73
2022-12-20T03:34:52.227Z,24.53
2022-12-20T03:37:19.847Z,22.47
2022-12-20T03:39:50.494Z,35.67
2022-12-20T03:42:18.780Z,21.07
2022-12-20T03:44:55.499Z,20.53
2022-12-20T03:47:36.699Z,35.53
2022-12-20T03:50:10.719Z,35.90
2022-12-20T03:52:46.296Z,29.03
2022-12-20T03:55:20.756Z,20.43
2022-12-20T03:57:48.414Z,22.57
2022-12-20T04:00:21.972Z,27.80
2022-12-20T04:03:01.791Z,42.97
2022-12-20T04:05:37.500Z,26.87
2022-12-20T04:08:09.099Z,22.57
2022-12-20T04:11:16.994Z,23.77
2022-12-20T04:13:53.433Z,37.83
2022-12-20T04:16:22.899Z,35.53
2022-12-20T04:19:04.574Z,24.10
2022-12-20T04:21:41.128Z,32.00
2022-12-20T04:24:24.288Z,34.60
2022-12-20T04:26:53.402Z,28.17
2022-12-20T04:29:36.605Z,26.17
2022-12-20T04:32:05.193Z,35.10
2022-12-20T04:34:33.139Z,30.60
2022-12-20T04:37:15.962Z,19.77
2022-12-20T04:39:44.400Z,32.83
2022-12-20T04:42:15.963Z,39.33
2022-12-20T04:45:12.583Z,33.40
2022-12-20T04:47:49.494Z,32.07
2022-12-20T04:50:19.845Z,30.40
2022-12-20T04:53:06.273Z,30.30
2022-12-20T04:55:41.245Z,37.67
2022-12-20T04:58:18.084Z,33.60
2022-12-20T05:00:53.666Z,29.63
2022-12-20T05:03:23.819Z,33.30
2022-12-20T05:05:52.264Z,39.60
2022-12-20T05:08:19.673Z,24.80
2022-12-20T05:10:48.501Z,30.13
2022-12-20T05:13:17.046Z,44.33
2022-12-20T05:15:45.522Z,27.37
2022-12-20T05:18:17.724Z,34.40
2022-12-20T05:20:45.746Z,35.63
2022-12-20T05:23:40.513Z,41.10
2022-12-20T05:26:18.801Z,32.73
2022-12-20T05:28:47.942Z,25.80
2022-12-20T05:31:16.776Z,35.27
2022-12-20T05:33:46.288Z,28.80
2022-12-20T05:36:16.368Z,34.20
2022-12-20T05:38:56.720Z,29.97
2022-12-20T05:41:30.572Z,32.37
2022-12-20T05:44:03.904Z,35.00
2022-12-20T05:46:31.859Z,31.13
2022-12-20T05:48:59.848Z,33.57
2022-12-20T05:51:27.262Z,34.17
2022-12-20T05:53:57.164Z,29.20
2022-12-20T05:56:26.488Z,37.27
2022-12-20T05:58:54.191Z,39.47
2022-12-20T06:01:23.927Z,34.47
2022-12-20T06:03:53.315Z,36.50
2022-12-20T06:06:20.865Z,33.83
2022-12-20T06:08:56.829Z,35.83
2022-12-20T06:11:34.662Z,40.10
2022-12-20T06:14:17.548Z,38.87
2022-12-20T06:16:46.380Z,25.47
2022-12-20T06:19:21.171Z,35.93
2022-12-20T06:22:11.981Z,34.13
2022-12-20T06:25:13.698Z,30.83
2022-12-20T06:27:42.384Z,34.87
2022-12-20T06:30:10.817Z,42.40
2022-12-20T06:32:49.878Z,29.23
2022-12-20T06:35:18.414Z,35.10
2022-12-20T06:37:46.009Z,29.33
2022-12-20T06:40:20.589Z,43.50
2022-12-20T06:42:56.338Z,36.10
2022-12-20T06:45:25.261Z,39.37
2022-12-20T06:47:59.695Z,37.40
2022-12-20T06:50:46.211Z,38.30
2022-12-20T06:53:31.463Z,35.33
2022-12-20T06:56:01.021Z,39.00
2022-12-20T06:58:30.486Z,31.33
2022-12-20T07:01:00.004Z,49.43
2022-12-20T07:03:46.028Z,52.33
2022-12-20T07:06:21.679Z,40.67
2022-12-20T07:08:57.379Z,42.07
2022-12-20T07:11:32.088Z,34.43
2022-12-20T07:14:00.113Z,42.87
2022-12-20T07:16:59.344Z,52.57
2022-12-20T07:19:34.946Z,35.60
2022-12-20T07:22:10.707Z,41.20
2022-12-20T07:24:40.356Z,35.20
2022-12-20T07:27:51.816Z,47.67
2022-12-20T07:30:21.594Z,38.30
2022-12-20T07:32:49.340Z,38.90
2022-12-20T07:35:23.064Z,40.87
2022-12-20T07:37:59.609Z,38.93
2022-12-20T07:40:36.388Z,30.53
2022-12-20T07:43:04.655Z,37.57
2022-12-20T07:45:42.359Z,53.20
2022-12-20T07:48:21.563Z,45.43
2022-12-20T07:51:00.627Z,47.37
2022-12-20T07:53:28.357Z,55.13
2022-12-20T07:56:03.085Z,52.10
2022-12-20T07:58:36.887Z,79.40
2022-12-20T08:01:14.608Z,65.13
2022-12-20T08:03:50.425Z,53.27
2022-12-20T08:06:22.207Z,54.67
2022-12-20T08:08:53.938Z,27.20
2022-12-20T08:11:22.559Z,23.80
2022-12-20T08:13:57.415Z,40.53
2022-12-20T08:16:27.881Z,27.03
2022-12-20T08:19:02.763Z,35.07
2022-12-20T08:21:31.634Z,25.50
2022-12-20T08:23:59.391Z,21.63
2022-12-20T08:26:42.931Z,30.60
2022-12-20T08:29:11.036Z,27.63
2022-12-20T08:31:50.426Z,38.83
2022-12-20T08:34:18.614Z,28.03
2022-12-20T08:36:46.341Z,30.83
2022-12-20T08:39:14.751Z,38.50
2022-12-20T08:41:42.432Z,42.23
2022-12-20T08:44:13.040Z,39.27
2022-12-20T08:46:43.176Z,29.53
2022-12-20T08:49:11.033Z,31.53
2022-12-20T08:51:39.590Z,35.00
2022-12-20T08:54:09.042Z,49.27
2022-12-20T08:56:37.713Z,41.33
2022-12-20T08:59:06.754Z,40.37
2022-12-20T09:01:37.078Z,44.83
2022-12-20T09:04:11.965Z,34.73
2022-12-20T09:06:39.754Z,43.33
2022-12-20T09:09:07.786Z,41.90
2022-12-20T09:11:36.375Z,41.20
2022-12-20T09:14:06.182Z,50.80
2022-12-20T09:16:33.866Z,45.33
2022-12-20T09:19:05.977Z,25.33
2022-12-20T09:21:36.102Z,25.20
2022-12-20T09:24:05.641Z,36.50
2022-12-20T09:26:36.292Z,25.20
2022-12-20T09:29:04.963Z,18.10
2022-12-20T09:31:34.008Z,23.03
2022-12-20T09:34:01.922Z,33.00
2022-12-20T09:36:31.543Z,28.40
2022-12-20T09:39:02.207Z,31.47
2022-12-20T09:41:34.184Z,26.47
2022-12-20T09:44:25.279Z,23.70
2022-12-20T09:47:04.954Z,21.27
2022-12-20T09:49:47.733Z,29.40
2022-12-20T09:52:20.775Z,26.17
2022-12-20T09:54:59.759Z,30.77
2022-12-20T09:58:15.743Z,31.67
2022-12-20T10:00:53.220Z,26.97
2022-12-20T10:03:30.168Z,21.10
2022-12-20T10:06:25.424Z,19.60
2022-12-20T10:09:03.799Z,16.27
2022-12-20T10:11:51.423Z,19.10
2022-12-20T10:14:39.260Z,22.67
2022-12-20T10:17:48.076Z,20.97
2022-12-20T10:20:20.779Z,27.10
2022-12-20T10:23:10.331Z,30.23
2022-12-20T10:25:40.376Z,27.13
2022-12-20T10:28:37.790Z,21.60
2022-12-20T10:31:07.785Z,22.93
2022-12-20T10:33:36.588Z,25.97
2022-12-20T10:36:25.283Z,19.97
2022-12-20T10:39:02.593Z,18.63
2022-12-20T10:41:50.107Z,16.27
2022-12-20T10:44:24.331Z,14.37
2022-12-20T10:46:56.951Z,27.43
2022-12-20T11:11:47.959Z,29.00
2022-12-20T11:22:21.802Z,20.67
2022-12-20T11:25:29.172Z,25.23
2022-12-20T11:29:12.861Z,20.67
2022-12-20T11:31:47.895Z,32.97
2022-12-20T11:34:54.935Z,28.53
2022-12-20T11:37:27.574Z,26.70
2022-12-20T11:45:09.258Z,32.20
2022-12-20T11:48:16.577Z,33.17
2022-12-20T12:17:38.751Z,32.33
2022-12-20T12:19:43.322Z,26.57
2022-12-20T12:22:30.456Z,22.37
2022-12-20T12:25:57.213Z,32.60
2022-12-20T12:41:14.053Z,30.50
2022-12-20T12:52:08.222Z,29.87
2022-12-20T12:58:49.058Z,20.30
2022-12-20T13:05:06.857Z,34.93
2022-12-20T13:07:41.253Z,31.10
2022-12-20T13:10:11.492Z,46.57
2022-12-20T13:13:29.582Z,26.83
2022-12-20T13:27:41.204Z,25.33
2022-12-20T13:30:28.687Z,24.33
2022-12-20T13:37:06.476Z,19.43
2022-12-20T13:54:49.473Z,24.90
2022-12-20T13:57:34.382Z,21.07
2022-12-20T14:00:07.836Z,12.20
2022-12-20T14:10:00.743Z,14.97
2022-12-20T14:19:36.390Z,19.70
2022-12-20T14:26:03.320Z,20.00
2022-12-20T14:29:33.648Z,24.30
2022-12-20T14:32:22.799Z,30.73
2022-12-20T14:34:52.536Z,23.83
2022-12-20T14:38:20.420Z,24.60
2022-12-20T14:55:29.501Z,22.30
2022-12-20T15:00:39.412Z,15.00
2022-12-20T15:03:37.049Z,19.83
2022-12-20T15:06:27.248Z,23.50
2022-12-20T15:16:26.385Z,28.60
2022-12-20T15:26:44.622Z,24.93
2022-12-20T15:30:26.724Z,26.67
2022-12-20T15:39:33.830Z,21.33
2022-12-20T15:42:38.491Z,26.57
2022-12-20T15:53:36.572Z,22.00
2022-12-20T15:57:42.450Z,27.93
2022-12-20T16:26:33.412Z,33.87
2022-12-20T16:29:07.938Z,22.50
2022-12-20T16:32:51.669Z,18.93
2022-12-20T16:39:18.927Z,24.77
2022-12-20T16:41:46.959Z,26.33
2022-12-20T16:44:17.145Z,29.87
2022-12-20T16:46:47.650Z,30.07
2022-12-20T16:49:24.835Z,24.80
2022-12-20T16:51:54.284Z,35.13
2022-12-20T16:54:29.647Z,23.40
2022-12-20T16:56:58.277Z,37.07
2022-12-20T16:59:29.996Z,28.90
2022-12-20T17:02:00.243Z,33.60
2022-12-20T17:04:34.867Z,41.13
2022-12-20T17:07:05.752Z,33.50
2022-12-20T17:09:36.501Z,36.50
2022-12-20T17:12:04.818Z,39.40
2022-12-20T17:14:33.539Z,23.53
2022-12-20T17:17:04.358Z,26.83
2022-12-20T17:19:41.721Z,29.03
2022-12-20T17:25:09.858Z,29.20
2022-12-20T17:27:50.454Z,45.53
2022-12-20T17:30:19.797Z,37.83
2022-12-20T17:32:51.095Z,38.67
2022-12-20T17:35:44.381Z,31.23
2022-12-20T17:41:38.044Z,25.77
2022-12-20T17:44:29.129Z,36.17
2022-12-20T18:04:06.382Z,35.70
2022-12-20T18:17:35.828Z,39.67
2022-12-20T18:31:28.898Z,34.80
2022-12-20T18:34:01.345Z,26.70
2022-12-20T18:36:35.324Z,26.30
2022-12-20T18:39:25.301Z,20.10
2022-12-20T18:45:28.912Z,18.87
2022-12-20T18:47:57.894Z,30.97
2022-12-20T19:14:16.630Z,18.27
2022-12-20T19:17:15.158Z,22.93
2022-12-20T19:42:33.840Z,23.63
2022-12-20T20:22:52.321Z,20.10
2022-12-20T23:14:16.006Z,13.73
2022-12-20T23:16:48.700Z,16.97
2022-12-20T23:19:16.791Z,23.93
2022-12-20T23:22:03.439Z,25.40
2022-12-20T23:24:33.731Z,16.50
2022-12-20T23:27:06.218Z,16.53
2022-12-20T23:32:30.137Z,23.63
2022-12-20T23:35:06.834Z,17.30
2022-12-20T23:37:38.173Z,16.73
2022-12-20T23:40:13.653Z,18.73
2022-12-20T23:42:43.237Z,19.90
2022-12-20T23:45:16.885Z,17.97
2022-12-20T23:47:50.773Z,12.60
2022-12-20T23:50:21.905Z,22.90
2022-12-20T23:52:50.086Z,17.00
2022-12-20T23:55:21.549Z,14.90
2022-12-20T23:58:06.570Z,19.93
